Terminal Aerodrome Forecast
Issued by NWS

Home | Current Version | Previous Version | Text Only | Print | Product List | Glossary On
Versions: 1 2 3 4 5 6 7 8 9 10 11 12 13 14 15 16 17 18 19 20
489
FTUS43 KLSX 280520
TAFSUS
TAF
KSUS 280520Z 2806/2906 VRB03KT P6SM OVC120
     FM281000 11007KT P6SM VCSH OVC070
      TEMPO 2813/2816 5SM -SHRA
     FM281600 13010KT P6SM VCSH OVC020
     FM282100 15007KT P6SM OVC020
     FM290500 VRB03KT 6SM -RA VCTS OVC012CB=

USA.gov is the U.S. government's official web portal to all federal, state and local government web resources and services.